Time;durP1;ratioP1;P1;durP2;ratioP2;P2;SDS_P1;SDS_P2;PMS_P1;PMS_P2;Temp;Humidity;BMP_temperature;BMP_pressure;BME280_temperature;BME280_humidity;BME280_pressure;Samples;Min_cycle;Max_cycle;Signal;HPM_P1;HPM_P2
2022/03/18 00:01:13;;;;;;;26.53;10.03;;;;;;;-3.08;43.14;102882.91;124359;1099;104239;-83
2022/03/18 00:03:48;;;;;;;28.35;10.08;;;;;;;-3.10;42.90;102878.30;124394;1099;104242;-83
2022/03/18 00:06:28;;;;;;;25.80;10.20;;;;;;;-3.13;43.39;102881.41;124082;1099;109417;-83
2022/03/18 00:09:02;;;;;;;25.05;9.40;;;;;;;-3.15;44.13;102881.92;124137;1099;104233;-83
2022/03/18 00:11:38;;;;;;;24.45;10.10;;;;;;;-3.17;43.19;102884.30;124031;1099;104417;-82
2022/03/18 00:14:11;;;;;;;25.03;9.27;;;;;;;-3.19;43.87;102882.28;124306;1099;104338;-82
2022/03/18 00:16:45;;;;;;;22.43;9.23;;;;;;;-3.19;43.62;102883.19;124134;1099;104242;-83
2022/03/18 00:19:21;;;;;;;23.90;9.30;;;;;;;-3.21;43.04;102878.56;124038;1099;104264;-83
2022/03/18 00:22:01;;;;;;;23.90;9.43;;;;;;;-3.23;42.68;102883.51;124247;1099;104354;-83
2022/03/18 00:24:35;;;;;;;22.57;9.87;;;;;;;-3.26;42.87;102884.05;124301;1099;104389;-82
2022/03/18 00:27:12;;;;;;;23.60;9.37;;;;;;;-3.27;42.92;102888.99;124344;1097;104370;-83
2022/03/18 00:29:46;;;;;;;23.43;8.90;;;;;;;-3.29;43.22;102891.36;124167;1099;104255;-83
2022/03/18 00:32:19;;;;;;;;;;;;;;;-3.33;44.43;102891.68;124424;1099;104373;-83
2022/03/18 00:34:52;;;;;;;27.57;9.20;;;;;;;-3.35;43.33;102893.14;124270;1099;104300;-83
2022/03/18 00:37:27;;;;;;;21.62;9.08;;;;;;;-3.35;42.95;102893.14;123958;1099;104245;-83
2022/03/18 00:40:03;;;;;;;20.47;8.90;;;;;;;-3.37;43.12;102898.78;124215;1099;104385;-83
2022/03/18 00:42:39;;;;;;;25.33;9.00;;;;;;;-3.39;44.02;102900.24;124277;1099;104239;-83
2022/03/18 00:45:16;;;;;;;27.20;9.47;;;;;;;-3.41;43.20;102891.39;124081;1099;104335;-82
2022/03/18 00:53:34;;;;;;;22.73;8.73;;;;;;;-3.49;44.23;102890.40;124111;1099;104312;-83
2022/03/18 00:56:09;;;;;;;23.63;9.17;;;;;;;-3.49;44.53;102890.40;124087;1097;104405;-83
2022/03/18 00:58:44;;;;;;;23.93;9.50;;;;;;;-3.51;44.78;102895.33;124224;1098;104418;-83
2022/03/18 01:01:18;;;;;;;23.77;9.43;;;;;;;-3.53;44.57;102901.02;124285;1098;104232;-83
2022/03/18 01:03:54;;;;;;;24.47;9.50;;;;;;;-3.55;45.43;102895.67;124076;1099;104287;-83
2022/03/18 01:06:27;;;;;;;23.50;9.20;;;;;;;-3.56;45.84;102898.95;124099;1099;104466;-83
2022/03/18 01:09:07;;;;;;;23.12;9.80;;;;;;;-3.57;45.39;102896.19;124190;1098;104288;-83
2022/03/18 01:11:40;;;;;;;22.77;8.80;;;;;;;-3.61;44.71;102890.66;124051;1098;104229;-83
2022/03/18 01:14:15;;;;;;;24.40;9.23;;;;;;;-3.63;46.27;102892.11;124065;1099;104224;-83
2022/03/18 01:16:51;;;;;;;21.73;8.37;;;;;;;-3.64;46.96;102895.39;124187;1099;104450;-83
2022/03/18 01:19:25;;;;;;;25.13;8.83;;;;;;;-3.63;46.28;102902.38;123780;1099;104264;-83
2022/03/18 01:21:59;;;;;;;24.17;8.93;;;;;;;-3.59;45.52;102898.55;124016;1099;104233;-83
2022/03/18 01:24:35;;;;;;;19.73;8.13;;;;;;;-3.58;45.98;102895.28;124001;1099;104281;-83
2022/03/18 01:27:08;;;;;;;21.37;8.60;;;;;;;-3.58;45.85;102900.41;124013;1099;104549;-83
2022/03/18 01:29:41;;;;;;;25.90;9.27;;;;;;;-3.59;45.20;102897.64;124175;1099;104232;-84
2022/03/18 01:32:13;;;;;;;25.70;8.33;;;;;;;-3.59;45.23;102902.78;123976;1098;104376;-83
2022/03/18 01:34:47;;;;;;;25.37;8.60;;;;;;;-3.62;45.27;102893.02;124015;1099;104704;-83
2022/03/18 01:37:18;;;;;;;;;;;;;;;-3.62;46.47;102893.94;124047;1098;104319;-84
2022/03/18 01:39:51;;;;;;;22.43;7.97;;;;;;;-3.63;45.62;102906.56;124127;1099;104334;-83
2022/03/18 01:42:26;;;;;;;15.20;5.80;;;;;;;-3.65;46.51;102903.80;124233;1099;104242;-83
2022/03/18 01:45:00;;;;;;;21.30;7.57;;;;;;;-3.65;46.38;102903.80;124455;1099;104259;-83
2022/03/18 01:47:42;;;;;;;22.60;7.83;;;;;;;-3.67;45.67;102896.64;124267;1099;104209;-83
2022/03/18 01:50:17;;;;;;;21.50;8.30;;;;;;;-3.69;45.57;102890.39;124130;1099;104255;-83
2022/03/18 01:52:51;;;;;;;21.27;8.97;;;;;;;-3.71;45.52;102895.33;124346;1099;104339;-83
2022/03/18 01:55:26;;;;;;;22.63;8.37;;;;;;;-3.71;45.70;102895.33;124178;1099;104397;-83
2022/03/18 01:58:00;;;;;;;19.95;8.30;;;;;;;-3.72;45.46;102892.56;124311;1099;104258;-83
2022/03/18 02:00:35;;;;;;;21.13;8.37;;;;;;;-3.72;46.09;102898.61;124199;1097;104227;-83
2022/03/18 02:03:08;;;;;;;22.40;8.30;;;;;;;-3.74;46.60;102901.67;124089;1099;104363;-83
2022/03/18 02:05:42;;;;;;;23.63;8.30;;;;;;;-3.75;45.95;102905.90;124114;1098;104216;-82
2022/03/18 02:08:17;;;;;;;22.47;8.73;;;;;;;-3.78;47.03;102904.58;124062;1099;104213;-82
2022/03/18 02:10:51;;;;;;;23.70;9.80;;;;;;;-3.82;46.27;102908.37;124102;1097;104468;-83
2022/03/18 02:13:22;;;;;;;;;;;;;;;-3.87;47.41;102905.20;124205;1097;104242;-83
2022/03/18 02:15:56;;;;;;;22.57;8.53;;;;;;;-3.93;47.92;102906.95;124181;1099;104418;-83
2022/03/18 02:18:30;;;;;;;19.98;7.60;;;;;;;-3.97;48.19;102913.33;123912;1099;104293;-83
2022/03/18 02:21:05;;;;;;;23.60;9.30;;;;;;;-4.00;46.80;102912.02;123994;1099;104261;-83
2022/03/18 02:23:40;;;;;;;20.97;8.90;;;;;;;-4.04;47.87;102913.22;124091;1099;104390;-82
2022/03/18 02:26:15;;;;;;;23.87;9.70;;;;;;;-4.05;47.10;102910.45;124208;1099;104235;-83
2022/03/18 02:28:49;;;;;;;24.77;8.67;;;;;;;-4.09;47.75;102910.80;123863;1099;104306;-82
2022/03/18 02:31:24;;;;;;;24.50;8.78;;;;;;;-4.11;47.80;102897.77;124333;1099;104293;-83
2022/03/18 02:33:58;;;;;;;23.73;9.03;;;;;;;-4.12;47.30;102903.59;124002;1099;104436;-83
2022/03/18 02:36:31;;;;;;;24.73;8.70;;;;;;;-4.13;46.85;102904.31;123953;1099;104332;-83
2022/03/18 02:39:04;;;;;;;23.55;8.40;;;;;;;-4.12;46.97;102905.25;123661;1099;104223;-83
2022/03/18 02:41:37;;;;;;;21.20;8.37;;;;;;;-4.13;46.55;102911.09;124125;1098;104159;-83
2022/03/18 02:44:13;;;;;;;18.57;7.47;;;;;;;-4.16;47.47;102917.67;124406;1099;104242;-83
2022/03/18 02:46:48;;;;;;;;;;;;;;;-4.15;48.38;102916.02;123788;1099;104616;-83
2022/03/18 02:49:23;;;;;;;21.73;7.27;;;;;;;-4.15;46.73;102923.70;124010;1102;104245;-82
2022/03/18 02:51:58;;;;;;;26.83;8.07;;;;;;;-4.15;46.50;102926.27;124287;1099;104280;-82
2022/03/18 02:54:32;;;;;;;21.43;7.23;;;;;;;-4.14;46.84;102928.13;123979;1099;104425;-82
2022/03/18 02:57:07;;;;;;;21.37;7.87;;;;;;;-4.15;46.58;102931.40;124030;1099;104438;-82
2022/03/18 02:59:40;;;;;;;19.27;8.07;;;;;;;-4.13;47.03;102940.20;123876;1102;118371;-83
2022/03/18 03:02:15;;;;;;;17.27;6.87;;;;;;;-4.12;47.12;102941.16;123652;1099;104312;-82
2022/03/18 03:10:30;;;;;;;20.93;7.60;;;;;;;-4.09;47.54;102945.04;123834;1099;104338;-83
2022/03/18 03:13:06;;;;;;;20.27;7.97;;;;;;;-4.08;47.63;102954.59;124071;1099;104528;-83
2022/03/18 03:15:40;;;;;;;19.07;7.07;;;;;;;-4.06;47.38;102953.14;124035;1099;104347;-84
2022/03/18 03:18:12;;;;;;;21.70;7.20;;;;;;;-4.05;48.03;102957.56;124047;1099;105430;-84
2022/03/18 03:20:45;;;;;;;18.67;7.43;;;;;;;-4.03;48.45;102963.81;123890;1099;109409;-84
2022/03/18 03:23:23;;;;;;;19.25;7.80;;;;;;;-4.01;48.16;102961.45;124199;1099;104389;-84
2022/03/18 03:26:01;;;;;;;20.55;8.10;;;;;;;-4.03;48.40;102958.68;124041;1099;104335;-84
2022/03/18 03:28:34;;;;;;;24.53;8.17;;;;;;;-4.03;48.98;102974.07;124336;1099;104281;-84
2022/03/18 03:31:09;;;;;;;21.93;8.10;;;;;;;-4.03;48.86;102968.94;124075;1099;104335;-83
2022/03/18 03:33:42;;;;;;;25.80;8.53;;;;;;;-4.05;48.05;102965.27;124038;1099;104333;-84
2022/03/18 03:36:19;;;;;;;22.25;8.50;;;;;;;-4.06;48.96;102971.09;124048;1099;104232;-84
2022/03/18 03:38:52;;;;;;;23.43;9.03;;;;;;;-4.07;48.23;102974.37;124017;1099;104382;-84
2022/03/18 03:41:26;;;;;;;21.37;8.07;;;;;;;-4.10;48.27;102973.95;123956;1099;104638;-82
2022/03/18 03:44:01;;;;;;;21.97;8.30;;;;;;;-4.11;47.95;102972.13;124328;1099;104241;-80
2022/03/18 03:46:35;;;;;;;23.93;8.20;;;;;;;-4.12;48.81;102987.31;123964;1099;104243;-81
2022/03/18 03:49:09;;;;;;;24.93;9.00;;;;;;;-4.16;48.94;102980.83;124412;1099;104335;-83
2022/03/18 03:51:43;;;;;;;21.00;8.00;;;;;;;-4.17;48.03;102985.05;124138;1099;104248;-84
2022/03/18 03:54:14;;;;;;;;;;;;;;;-4.16;48.91;102994.59;124370;1098;104271;-84
2022/03/18 03:56:47;;;;;;;22.03;8.33;;;;;;;-4.17;48.93;102996.95;124220;1099;104274;-84
2022/03/18 03:59:22;;;;;;;19.60;7.47;;;;;;;-4.19;49.31;103000.92;124252;1098;104245;-84
2022/03/18 04:01:57;;;;;;;26.65;10.20;;;;;;;-4.21;49.06;103004.94;124454;1099;104198;-84
2022/03/18 04:04:31;;;;;;;31.83;11.53;;;;;;;-4.24;49.72;103001.95;124120;1099;104520;-84
2022/03/18 04:07:04;;;;;;;27.50;10.97;;;;;;;-4.27;49.59;102999.93;124031;1099;104303;-83
2022/03/18 04:09:37;;;;;;;26.67;11.07;;;;;;;-4.27;49.79;103004.11;124320;1099;104242;-83
2022/03/18 04:12:11;;;;;;;24.95;11.10;;;;;;;-4.28;50.09;103015.11;124162;1099;104781;-84
2022/03/18 04:14:45;;;;;;;27.57;11.90;;;;;;;-4.27;49.44;103011.80;123752;1099;104238;-83
2022/03/18 04:17:19;;;;;;;22.32;9.65;;;;;;;-4.28;49.89;103015.11;123889;1099;104232;-83
2022/03/18 04:19:53;;;;;;;24.45;9.80;;;;;;;-4.28;49.38;103020.23;124248;1098;104242;-83
2022/03/18 04:22:27;;;;;;;26.50;10.00;;;;;;;-4.27;50.20;103024.62;124006;1099;104232;-84
2022/03/18 04:24:59;;;;;;;21.70;8.95;;;;;;;-4.27;50.25;103022.05;123942;1097;104341;-83
2022/03/18 04:27:33;;;;;;;30.43;12.40;;;;;;;-4.28;49.52;103017.67;123899;1099;104680;-84
2022/03/18 04:30:09;;;;;;;37.33;16.37;;;;;;;-4.29;49.49;103020.94;123825;1099;104422;-84
2022/03/18 04:32:44;;;;;;;37.67;16.33;;;;;;;-4.28;49.53;103030.48;123653;1102;104358;-84
2022/03/18 04:35:19;;;;;;;34.87;15.80;;;;;;;-4.30;49.80;103021.64;123535;1099;104437;-84
2022/03/18 04:37:53;;;;;;;41.33;16.60;;;;;;;-4.31;50.30;103025.86;123846;1099;104377;-84
2022/03/18 04:40:24;;;;;;;;;;;;;;;-4.32;50.06;103023.08;123743;1099;104245;-84
2022/03/18 04:42:58;;;;;;;32.80;12.47;;;;;;;-4.33;49.75;103022.17;123741;1099;104417;-83
2022/03/18 04:45:30;;;;;;;;;;;;;;;-4.31;51.44;103024.95;123673;1099;104360;-83
2022/03/18 04:48:03;;;;;;;32.60;13.70;;;;;;;-4.30;49.67;103019.08;123978;1099;104398;-83
2022/03/18 04:50:39;;;;;;;32.67;12.87;;;;;;;-4.29;49.72;103016.72;123658;1099;104375;-83
2022/03/18 04:53:12;;;;;;;26.37;11.10;;;;;;;-4.27;50.26;103027.19;124045;1102;104296;-83
2022/03/18 04:55:54;;;;;;;25.50;10.60;;;;;;;-4.24;49.84;103025.98;123711;1102;104338;-82
2022/03/18 04:58:27;;;;;;;28.52;11.83;;;;;;;-4.22;49.89;103027.10;123775;1102;104332;-81
2022/03/18 05:01:03;;;;;;;26.37;11.33;;;;;;;-4.17;49.61;103030.29;123624;1102;104342;-81
2022/03/18 05:03:38;;;;;;;29.03;11.37;;;;;;;-4.12;49.50;103033.47;123752;1102;104326;-82
2022/03/18 05:06:12;;;;;;;26.97;11.47;;;;;;;-4.07;49.33;103038.48;123895;1102;104347;-82
2022/03/18 05:08:43;;;;;;;;;;;;;;;-4.03;50.21;103035.63;124162;1102;104421;-81
2022/03/18 05:11:17;;;;;;;30.17;12.10;;;;;;;-4.00;50.27;103041.17;123649;1099;104230;-82
2022/03/18 05:13:51;;;;;;;31.60;12.93;;;;;;;-3.96;51.47;103039.92;123957;1100;104708;-82
2022/03/18 05:16:24;;;;;;;29.57;11.23;;;;;;;-3.92;50.46;103044.77;123906;1099;104363;-82
2022/03/18 05:18:59;;;;;;;34.03;13.27;;;;;;;-3.87;51.13;103041.16;123652;1102;104568;-83
2022/03/18 05:21:35;;;;;;;36.27;13.57;;;;;;;-3.83;50.63;103051.13;123646;1102;104342;-82
2022/03/18 05:24:10;;;;;;;29.55;11.85;;;;;;;-3.78;50.67;103044.05;123795;1099;104688;-82
2022/03/18 05:26:43;;;;;;;28.63;10.83;;;;;;;-3.72;51.24;103050.00;123936;1099;104412;-83
2022/03/18 05:29:17;;;;;;;24.50;9.77;;;;;;;-3.63;50.66;103055.41;124559;1099;104259;-83
2022/03/18 05:31:50;;;;;;;23.60;10.13;;;;;;;-3.56;50.34;103058.09;124034;1099;104235;-82
2022/03/18 05:34:25;;;;;;;25.40;9.63;;;;;;;-3.46;51.08;103060.23;124130;1099;104233;-83
2022/03/18 05:36:59;;;;;;;24.43;8.40;;;;;;;-3.39;50.77;103074.83;123848;1099;104210;-83
2022/03/18 05:39:36;;;;;;;21.30;8.33;;;;;;;-3.33;50.87;103083.34;123550;1099;104428;-82
2022/03/18 05:42:10;;;;;;;21.63;8.43;;;;;;;-3.27;50.66;103079.93;123539;1099;104261;-82
2022/03/18 05:44:43;;;;;;;24.23;9.77;;;;;;;-3.18;50.50;103079.29;124229;1099;104344;-83
2022/03/18 05:47:18;;;;;;;22.80;9.27;;;;;;;-3.11;50.81;103079.39;123896;1099;104336;-82
2022/03/18 05:49:51;;;;;;;28.23;10.00;;;;;;;-3.06;50.87;103088.61;123934;1099;104236;-82
2022/03/18 05:52:24;;;;;;;27.47;10.13;;;;;;;-2.97;50.36;103089.83;124322;1099;104335;-83
2022/03/18 05:54:57;;;;;;;25.80;9.00;;;;;;;-2.90;50.88;103095.06;124239;1099;104354;-82
2022/03/18 05:57:31;;;;;;;27.53;9.57;;;;;;;-2.80;50.91;103101.41;123874;1099;104259;-81
2022/03/18 06:00:02;;;;;;;;;;;;;;;-2.69;50.36;103097.66;124096;1099;104204;-82
2022/03/18 06:02:47;;;;;;;26.80;8.60;;;;;;;-2.60;50.85;103093.69;123893;1099;104238;-81
2022/03/18 06:05:20;;;;;;;23.70;8.57;;;;;;;-2.55;50.49;103096.14;124195;1099;104708;-82
2022/03/18 06:11:48;;;;;;;26.73;8.73;;;;;;;-2.48;51.10;103105.56;124000;1099;104302;-81
2022/03/18 06:13:36;;;;;;;27.73;10.20;;;;;;;-2.29;49.87;103106.32;123667;1099;104258;-82
2022/03/18 06:16:11;;;;;;;28.57;9.63;;;;;;;-2.20;50.01;103104.94;123735;1099;104418;-83
2022/03/18 06:18:46;;;;;;;27.83;10.10;;;;;;;-2.17;49.88;103101.80;123813;1099;104258;-83
2022/03/18 06:21:18;;;;;;;20.40;8.30;;;;;;;-2.07;50.64;103104.84;123797;1098;104674;-82
2022/03/18 06:23:52;;;;;;;24.50;9.27;;;;;;;-1.96;50.41;103103.64;123538;1099;104305;-82
2022/03/18 06:26:29;;;;;;;23.97;8.43;;;;;;;-1.89;50.98;103101.11;124309;1099;104296;-82
2022/03/18 06:29:05;;;;;;;22.30;8.70;;;;;;;-1.83;51.04;103100.97;123889;1099;104242;-81
2022/03/18 06:31:39;;;;;;;20.13;7.77;;;;;;;-1.76;50.29;103089.80;124093;1099;104268;-80
2022/03/18 06:34:10;;;;;;;;;;;;;;;-1.71;50.10;103092.23;124022;1099;104274;-79
2022/03/18 06:36:42;;;;;;;21.87;7.87;;;;;;;-1.62;50.32;103095.06;123818;1099;104280;-81
2022/03/18 06:39:19;;;;;;;20.60;7.33;;;;;;;-1.54;50.37;103091.78;124036;1099;104412;-81
2022/03/18 06:41:56;;;;;;;17.70;7.60;;;;;;;-1.40;49.88;103085.79;123502;1098;104517;-80
2022/03/18 06:44:30;;;;;;;24.20;7.50;;;;;;;-1.35;49.81;103081.22;123751;1102;104216;-81
2022/03/18 06:47:04;;;;;;;19.45;7.45;;;;;;;-1.27;49.28;103088.23;123865;1099;104277;-82
2022/03/18 06:49:39;;;;;;;21.35;7.95;;;;;;;-1.13;49.43;103088.28;124124;1102;104447;-82
2022/03/18 06:52:14;;;;;;;18.10;7.20;;;;;;;-1.04;49.83;103084.99;124307;1099;104396;-84
2022/03/18 06:54:51;;;;;;;17.30;7.30;;;;;;;-1.01;49.08;103093.10;124213;1099;107715;-84
2022/03/18 06:57:24;;;;;;;20.10;7.80;;;;;;;-0.96;49.67;103094.62;123947;1099;104192;-84
2022/03/18 06:59:58;;;;;;;18.67;7.20;;;;;;;-0.86;49.09;103088.93;123492;1099;104401;-84
2022/03/18 07:02:37;;;;;;;21.53;7.63;;;;;;;-0.75;49.18;103093.73;124338;1099;104374;-83
2022/03/18 07:05:18;;;;;;;18.57;7.60;;;;;;;-0.64;49.41;103087.31;124101;1100;117818;-81
2022/03/18 07:07:53;;;;;;;19.87;6.90;;;;;;;-0.58;49.41;103083.85;123698;1099;104230;-81
2022/03/18 07:10:38;;;;;;;18.40;7.00;;;;;;;-0.45;48.69;103095.62;124294;1099;104405;-83
2022/03/18 07:13:24;;;;;;;17.53;6.40;;;;;;;-0.33;47.51;103097.12;124489;1099;103219;-81
2022/03/18 07:19:10;;;;;;;18.63;7.63;;;;;;;-0.14;48.51;103079.64;124828;1099;104683;-83
2022/03/18 07:21:58;;;;;;;21.90;8.23;;;;;;;-0.03;47.06;103079.25;124812;1099;104281;-82
2022/03/18 07:24:36;;;;;;;21.37;8.00;;;;;;;0.02;47.10;103087.55;124408;1099;104216;-81
2022/03/18 07:27:16;;;;;;;18.70;7.43;;;;;;;-0.02;46.53;103096.59;124198;1099;104325;-84
2022/03/18 07:29:54;;;;;;;21.20;7.80;;;;;;;0.07;47.32;103098.42;124750;1099;104239;-83
2022/03/18 07:32:39;;;;;;;20.90;8.00;;;;;;;0.10;46.91;103076.47;124933;1099;104359;-86
2022/03/18 07:35:15;;;;;;;24.00;8.70;;;;;;;0.20;47.53;103091.37;124750;1099;104332;-82
2022/03/18 07:37:49;;;;;;;19.87;7.87;;;;;;;0.27;47.62;103085.30;124551;1099;104348;-81
2022/03/18 07:40:24;;;;;;;19.50;8.00;;;;;;;0.33;46.52;103088.61;124891;1099;104261;-81
2022/03/18 07:43:00;;;;;;;21.27;7.50;;;;;;;0.32;46.20;103097.09;124367;1099;104297;-81
2022/03/18 07:45:41;;;;;;;17.17;7.67;;;;;;;0.25;46.10;103089.34;124385;1099;104392;-85
2022/03/18 07:48:17;;;;;;;19.67;7.47;;;;;;;0.26;46.45;103088.61;123907;1099;104270;-84
2022/03/18 07:50:56;;;;;;;23.13;8.33;;;;;;;0.43;46.82;103082.86;123904;1099;104309;-85
2022/03/18 07:53:34;;;;;;;21.13;9.17;;;;;;;0.58;46.92;103088.89;124124;1099;104269;-86
2022/03/18 07:56:15;;;;;;;19.23;7.17;;;;;;;0.70;46.79;103086.10;124974;1098;104332;-83
2022/03/18 07:58:49;;;;;;;17.57;7.50;;;;;;;0.78;45.53;103089.58;124286;1099;104296;-83
2022/03/18 08:01:29;;;;;;;19.83;6.83;;;;;;;0.78;45.83;103084.41;123508;1099;104497;-85
2022/03/18 08:04:21;;;;;;;19.63;6.83;;;;;;;0.91;45.99;103088.42;123697;1099;104322;-85
2022/03/18 08:07:21;;;;;;;19.17;7.37;;;;;;;1.04;46.11;103083.91;124033;1099;112654;-83
2022/03/18 08:10:15;;;;;;;14.83;6.35;;;;;;;1.12;44.87;103079.62;124193;1098;104204;-83
2022/03/18 08:13:01;;;;;;;12.93;5.27;;;;;;;1.15;43.53;103091.23;123918;1100;104469;-83
2022/03/18 08:16:10;;;;;;;14.23;6.27;;;;;;;1.17;43.75;103084.59;123973;1102;104270;-85
2022/03/18 08:22:21;;;;;;;16.95;6.25;;;;;;;1.20;43.54;103087.53;123896;1102;104482;-84
2022/03/18 08:25:00;;;;;;;15.57;5.70;;;;;;;1.36;43.64;103079.84;123669;1102;104261;-84
2022/03/18 08:27:47;;;;;;;16.73;6.57;;;;;;;1.25;43.97;103081.20;124561;1102;121408;-85
2022/03/18 08:30:25;;;;;;;17.23;6.50;;;;;;;1.14;43.88;103096.22;123834;1102;104386;-82
2022/03/18 08:33:39;;;;;;;;;;;;;;;;;;;;;
2022/03/18 08:36:56;;;;;;;14.13;6.33;;;;;;;1.02;43.90;103091.48;124623;1102;103278;-85
2022/03/18 08:39:43;;;;;;;18.70;6.73;;;;;;;1.21;44.47;103079.00;124261;1102;104333;-85
2022/03/18 08:45:36;;;;;;;17.00;7.15;;;;;;;1.67;43.81;103074.63;124197;1099;104447;-85
2022/03/18 08:48:44;;;;;;;;;;;;;;;;;;;;;
2022/03/18 08:51:21;;;;;;;19.80;7.93;;;;;;;1.41;44.07;103078.69;124434;1099;104354;-84
2022/03/18 08:53:58;;;;;;;17.97;6.60;;;;;;;1.52;43.46;103072.15;124375;1099;104190;-86
2022/03/18 08:56:33;;;;;;;16.93;6.53;;;;;;;1.56;43.31;103078.62;124245;1099;104252;-84
2022/03/18 08:59:39;;;;;;;17.40;7.20;;;;;;;1.64;43.73;103075.22;124447;1099;104692;-85
2022/03/18 09:02:37;;;;;;;18.07;7.03;;;;;;;1.77;43.60;103074.92;124565;1099;104444;-83
2022/03/18 09:05:33;;;;;;;18.17;7.87;;;;;;;1.86;43.85;103075.95;124651;1099;104302;-86
2022/03/18 09:22:04;;;;;;;16.87;6.37;;;;;;;2.04;42.32;103077.10;124258;1099;104412;-86
2022/03/18 09:25:16;;;;;;;13.67;5.83;;;;;;;2.10;42.50;103072.61;123751;1099;104347;-83
2022/03/18 09:28:10;;;;;;;16.37;7.00;;;;;;;2.05;42.74;103071.16;123833;1099;104839;-85
2022/03/18 09:30:49;;;;;;;17.20;6.43;;;;;;;2.21;42.90;103072.85;124303;1099;104335;-80
2022/03/18 09:33:41;;;;;;;12.37;5.13;;;;;;;2.19;41.39;103079.55;124028;1099;104462;-84
2022/03/18 09:36:33;;;;;;;17.90;6.27;;;;;;;2.41;41.53;103086.33;123787;1102;104358;-81
2022/03/18 09:39:10;;;;;;;16.60;6.80;;;;;;;2.34;40.92;103065.69;123968;1102;104261;-83
2022/03/18 09:45:03;;;;;;;16.87;6.13;;;;;;;2.29;42.00;103061.66;124152;1102;104338;-86
2022/03/18 09:48:22;;;;;;;15.20;5.53;;;;;;;2.24;40.94;103079.28;124165;1102;104383;-82
2022/03/18 09:51:06;;;;;;;11.90;4.45;;;;;;;2.21;41.52;103063.40;123766;1102;104206;-82
2022/03/18 09:53:42;;;;;;;16.50;5.50;;;;;;;2.38;40.95;103069.53;124219;1102;104306;-80
2022/03/18 09:56:56;;;;;;;12.90;4.77;;;;;;;2.23;39.98;103061.92;123969;1099;104297;-83
2022/03/18 09:59:54;;;;;;;15.47;6.27;;;;;;;2.48;41.43;103056.84;124125;1099;104242;-85
2022/03/18 10:02:43;;;;;;;12.00;5.30;;;;;;;2.65;40.29;103064.77;123745;1099;104257;-83
2022/03/18 10:06:04;;;;;;;14.27;5.47;;;;;;;2.80;40.71;103051.62;124066;1102;104316;-85
2022/03/18 10:11:43;;;;;;;15.53;5.40;;;;;;;2.95;40.20;103058.46;124096;1102;104492;-82
2022/03/18 10:14:48;;;;;;;;;;;;;;;;;;;;;
2022/03/18 10:17:25;;;;;;;15.70;5.77;;;;;;;3.32;39.67;103062.39;124739;1099;104290;-82
2022/03/18 10:20:09;;;;;;;16.20;6.47;;;;;;;3.28;38.74;103078.38;125203;1099;104390;-81
2022/03/18 10:22:46;;;;;;;;;;;;;;;3.21;39.26;103084.60;125016;1099;107583;-80
2022/03/18 10:25:50;;;;;;;14.73;5.40;;;;;;;3.18;40.09;103073.89;124397;1099;104470;-81
2022/03/18 10:29:15;;;;;;;;;;;;;;;;;;;;;
2022/03/18 10:32:10;;;;;;;14.80;5.70;;;;;;;2.94;38.38;103076.45;125298;1098;104210;-82
2022/03/18 10:37:47;;;;;;;;;;;;;;;2.90;38.95;103061.30;124828;1099;104309;-80
2022/03/18 10:40:34;;;;;;;13.00;5.50;;;;;;;3.01;38.90;103071.19;125068;1098;104338;-81
2022/03/18 10:43:25;;;;;;;17.53;6.07;;;;;;;3.22;39.08;103072.54;125076;1099;109107;-82
2022/03/18 10:46:15;;;;;;;16.73;6.40;;;;;;;3.10;38.76;103071.23;125024;1099;104293;-81
2022/03/18 10:49:12;;;;;;;18.15;6.33;;;;;;;3.15;38.31;103078.76;125129;1098;104239;-81
2022/03/18 10:51:55;;;;;;;18.57;7.40;;;;;;;3.08;39.43;103076.25;125060;1099;104268;-81
2022/03/18 10:54:58;;;;;;;18.33;7.13;;;;;;;3.12;39.23;103088.81;125362;1099;104297;-82
2022/03/18 10:57:41;;;;;;;14.03;6.13;;;;;;;3.05;38.60;103076.86;125152;1099;104160;-83
2022/03/18 11:00:42;;;;;;;16.67;7.17;;;;;;;3.37;39.49;103071.58;124563;1099;104341;-83
2022/03/18 11:03:19;;;;;;;14.17;5.90;;;;;;;3.39;38.11;103067.45;124473;1099;104242;-82
2022/03/18 11:06:06;;;;;;;13.83;5.97;;;;;;;3.40;37.56;103076.19;124398;1099;104348;-82
2022/03/18 11:08:48;;;;;;;16.67;6.83;;;;;;;3.58;38.17;103071.98;125028;1099;104265;-81
2022/03/18 11:11:31;;;;;;;11.87;4.87;;;;;;;3.43;37.43;103081.70;124929;1099;104383;-81
2022/03/18 11:14:10;;;;;;;14.47;5.47;;;;;;;3.43;37.49;103073.91;125861;1099;102313;-83
2022/03/18 11:16:54;;;;;;;12.83;5.60;;;;;;;3.52;37.55;103061.91;125852;1099;102847;-81
2022/03/18 11:19:29;;;;;;;12.63;5.40;;;;;;;3.69;38.27;103067.92;125570;1099;104226;-82
2022/03/18 11:22:08;;;;;;;13.50;5.47;;;;;;;3.58;36.99;103064.20;124402;1099;104657;-80
2022/03/18 11:24:50;;;;;;;10.37;4.27;;;;;;;3.30;36.76;103043.13;124390;1099;104150;-81
2022/03/18 11:27:36;;;;;;;14.97;5.37;;;;;;;3.55;37.61;103057.03;125326;1099;104219;-80
2022/03/18 11:30:33;;;;;;;11.10;4.80;;;;;;;3.48;36.49;103057.13;124291;1099;104248;-80
2022/03/18 11:33:25;;;;;;;10.47;4.57;;;;;;;3.64;37.00;103062.25;124968;1099;104195;-82
2022/03/18 11:36:18;;;;;;;11.80;4.10;;;;;;;3.73;36.95;103046.72;124568;1099;104191;-82
2022/03/18 11:39:06;;;;;;;11.30;5.00;;;;;;;3.72;37.42;103044.88;125139;1099;104264;-79
2022/03/18 11:42:12;;;;;;;12.17;4.60;;;;;;;3.72;36.98;103050.06;124763;1099;104163;-80
2022/03/18 11:44:58;;;;;;;13.30;4.37;;;;;;;3.71;36.16;103045.62;125111;1099;118868;-81
2022/03/18 11:47:46;;;;;;;12.63;4.53;;;;;;;3.80;36.97;103041.38;124950;1098;104553;-81
2022/03/18 11:50:45;;;;;;;14.45;5.05;;;;;;;3.74;36.51;103049.48;124752;1099;104304;-80
2022/03/18 11:53:53;;;;;;;14.23;5.90;;;;;;;3.76;36.96;103041.84;124030;1102;104421;-81
2022/03/18 11:57:09;;;;;;;10.10;5.03;;;;;;;3.79;36.80;103052.55;124013;1099;104360;-81
2022/03/18 11:59:50;;;;;;;14.77;5.07;;;;;;;3.65;36.38;103042.42;123764;1100;104350;-82
2022/03/18 12:02:35;;;;;;;14.30;5.08;;;;;;;3.74;37.12;103043.34;123825;1102;104365;-79
2022/03/18 12:05:22;;;;;;;9.77;4.50;;;;;;;3.84;35.84;103046.15;123274;1102;104348;-82
2022/03/18 12:08:02;;;;;;;13.00;5.40;;;;;;;3.90;36.98;103038.99;124155;1102;102258;-82
2022/03/18 12:10:40;;;;;;;11.10;5.10;;;;;;;3.86;36.57;103039.42;124054;1102;104344;-84
2022/03/18 12:13:33;;;;;;;12.40;5.20;;;;;;;3.95;37.17;103050.77;124270;1099;104348;-83
2022/03/18 12:16:21;;;;;;;15.27;4.87;;;;;;;3.90;35.32;103038.09;124256;1099;104466;-82
2022/03/18 12:19:22;;;;;;;;;;;;;;;;;;;;;
2022/03/18 12:22:07;;;;;;;13.60;5.50;;;;;;;4.17;36.69;103037.38;124051;1099;104245;-85
2022/03/18 12:24:49;;;;;;;12.80;5.15;;;;;;;4.00;36.30;103030.45;124432;1099;104222;-83
2022/03/18 12:27:51;;;;;;;;;;;;;;;;;;;;;
2022/03/18 12:34:33;;;;;;;16.57;4.67;;;;;;;3.99;34.94;103040.69;124315;1099;104447;-83
2022/03/18 12:37:22;;;;;;;9.90;4.77;;;;;;;3.88;34.88;103031.79;124079;1099;104262;-82
2022/03/18 12:40:23;;;;;;;12.07;4.93;;;;;;;3.88;35.39;103024.94;124523;1099;104265;-85
2022/03/18 12:43:02;;;;;;;11.97;4.63;;;;;;;4.00;35.65;103022.66;124533;1099;104313;-82
2022/03/18 12:45:55;;;;;;;10.37;4.60;;;;;;;4.04;35.53;103017.03;123845;1099;104268;-83
2022/03/18 12:48:32;;;;;;;14.77;5.00;;;;;;;4.17;35.99;103019.19;124431;1099;104309;-81
2022/03/18 12:51:40;;;;;;;;;;;;;;;;;;;;;
2022/03/18 12:54:19;;;;;;;13.93;5.40;;;;;;;3.87;35.16;103023.09;124759;1099;104264;-83
2022/03/18 12:57:11;;;;;;;14.77;5.37;;;;;;;3.88;35.56;103018.80;124282;1099;104385;-83
2022/03/18 13:00:09;;;;;;;15.53;5.73;;;;;;;3.85;36.25;103022.02;124478;1099;104271;-84
2022/03/18 13:03:15;;;;;;;13.73;5.80;;;;;;;3.85;35.98;103019.42;124442;1099;104274;-83
2022/03/18 13:06:18;;;;;;;16.17;5.47;;;;;;;3.98;35.71;103013.80;124105;1103;104290;-84
2022/03/18 13:09:13;;;;;;;10.90;4.73;;;;;;;4.00;35.61;103016.55;124642;1102;104236;-84